Byron Center, MI (49315)

12:06 AM EDT on September 05, 2015 (GMT -0400)
South Kent Landfill | | Change Station
CLOSE
Current Station
Personal Weather Station
Location: Byron Center, MI
Elevation: 770 ft
Nearby Weather Stations

Elev 770 ft 42.78 °N, 85.68 °W | Updated 58 seconds ago

Clear
Clear
66.6 °F
Feels Like 66.6 °F
N
0.0
Wind Variable Wind from North
Gusts 0.0 mph

Today
High -- | Low -- °F
--% Chance of Precip.
Yesterday
High -- | Low -- °F
Precip. -- in
7:11 AM 8:10 PM
Waning Gibbous, 53% visible
Pressure 30.06 in
Visibility 5.0 miles
Clouds Clear
Dew Point 65 °F
Humidity 95%
Rainfall 0.00 in
Snow Depth Not available.
UV 0 out of 12
Pollen 8.40 out of 12
Air Quality Not available.
Flu Activity Not available.
METAR KGRR 050353Z 00000KT 5SM R26L/2400VP6000FT BR CLR 21/19 A3007 RMK AO2 SLP180 LAST AUGMENTED OBS OF THE DAY UNTIL 0945Z T02060194 $
Pressure 30.06 in
Visibility 5.0 miles
Clouds Clear
Dew Point 65 °F
Humidity 95%
Rainfall 0.00 in
Snow Depth Not available.
UV 0 out of 12
Pollen 8.40 out of 12
Air Quality Not available.
Flu Activity Not available.
METAR KGRR 050353Z 00000KT 5SM R26L/2400VP6000FT BR CLR 21/19 A3007 RMK AO2 SLP180 LAST AUGMENTED OBS OF THE DAY UNTIL 0945Z T02060194 $

10-Day Weather Forecast

×

Almanac

Astronomy

Sep. 05, 2015 Rise Set
Actual Time
Civil Twilight
Nautical Twilight
Astronomical Twilight
Moon
Length of Visible Light
Length of Day
Tomorrow will be .
, % of the Moon is Illuminated

Today's Extremes

State Highs State Lows

Community

WunderPhotos

Upload Photos

1,852,418 photos uploaded!

WunderBlogs® & News

Nearby

Air Quality

  Air Quality AQ Index Pollutant
Not available.

Snow Depth

Station Depth Elevation

Earthquake Activity

City Distance Mag. Time & Date
Minimum magnitude displayed is 2.5.

Coastal Water Temperatures

Place Temperature

Stations

Nearby Weather Stations

Station Location Temp. Windchill Dew Point Humidity Wind Precip. Elev Updated Type